createdAt,value
2022-08-26T15:43:11.308Z,100742.53
2022-08-26T15:50:53.606Z,100715.19
2022-08-26T15:58:30.335Z,100714.13
2022-08-26T16:06:04.453Z,100712.34
2022-08-26T16:13:40.283Z,100723.22
2022-08-26T16:21:16.799Z,100734.13
2022-08-26T16:28:52.336Z,100753.88
2022-08-26T16:36:26.356Z,100750.31
2022-08-26T16:44:02.012Z,100775.59
2022-08-26T16:51:38.268Z,100776.38
2022-08-26T16:59:13.674Z,100756.44
2022-08-26T17:06:47.710Z,100791.59
2022-08-26T17:14:22.831Z,100810.53
2022-08-26T17:21:56.589Z,100815.06
2022-08-26T17:29:31.734Z,100806.91
2022-08-26T17:37:05.679Z,100790.66
2022-08-26T17:44:41.101Z,100768.94
2022-08-26T17:52:14.904Z,100778.00
2022-08-26T17:59:50.088Z,100765.44
2022-08-26T18:07:26.516Z,100755.47
2022-08-26T18:15:01.805Z,100770.19
2022-08-26T18:22:35.561Z,100770.28
2022-08-26T18:30:16.636Z,100770.31
2022-08-26T18:37:50.675Z,100758.56
2022-08-26T18:45:26.187Z,100760.28
2022-08-26T18:52:59.931Z,100740.50
2022-08-26T19:00:35.023Z,100737.06
2022-08-26T19:08:09.246Z,100745.56
2022-08-26T19:15:46.147Z,100770.94
2022-08-26T19:23:31.299Z,100795.31
2022-08-26T19:31:10.467Z,100817.09
2022-08-26T19:38:44.733Z,100824.34
2022-08-26T19:46:22.266Z,100825.28
2022-08-26T19:53:59.291Z,100831.66
2022-08-26T20:01:34.491Z,100829.84
2022-08-26T20:09:08.382Z,100810.06
2022-08-26T20:16:43.988Z,100820.03
2022-08-26T20:24:20.988Z,100821.84
2022-08-26T20:31:56.549Z,100829.97
2022-08-26T20:39:30.438Z,100831.84
2022-08-26T20:47:06.658Z,100847.19
2022-08-26T20:54:40.486Z,100851.69
2022-08-26T21:02:15.880Z,100853.53
2022-08-26T21:09:49.663Z,100858.13
2022-08-26T21:17:27.129Z,100844.59
2022-08-26T21:25:01.529Z,100841.91
2022-08-26T21:32:36.855Z,100835.63
2022-08-26T21:40:11.661Z,100830.28
2022-08-26T21:47:46.702Z,100832.16
2022-08-26T21:55:20.702Z,100842.19
2022-08-26T22:03:00.715Z,100855.75
2022-08-26T22:10:34.694Z,100848.50
2022-08-26T22:18:10.129Z,100851.19
2022-08-26T22:25:44.153Z,100819.66
2022-08-26T22:33:19.394Z,100812.44
2022-08-26T22:40:56.576Z,100798.81
2022-08-26T22:48:32.073Z,100773.66
2022-08-26T22:56:06.504Z,100774.69
2022-08-26T23:03:41.965Z,100747.78
2022-08-26T23:11:16.110Z,100744.31
2022-08-26T23:18:51.484Z,100747.22
2022-08-26T23:26:25.334Z,100749.06
2022-08-26T23:34:18.338Z,100765.31
2022-08-26T23:41:52.243Z,100767.09
2022-08-26T23:49:27.750Z,100773.53
2022-08-26T23:57:01.787Z,100787.97
